sensor_id;sensor_type;location;lat;lon;timestamp;P1;durP1;ratioP1;P2;durP2;ratioP2
4278;SDS011;2153;47.744;10.580;2022-12-11T00:00:26;30.17;;;14.47;;
4278;SDS011;2153;47.744;10.580;2022-12-11T00:02:53;32.93;;;15.30;;
4278;SDS011;2153;47.744;10.580;2022-12-11T00:05:20;31.40;;;13.50;;
4278;SDS011;2153;47.744;10.580;2022-12-11T00:07:48;33.50;;;15.53;;
4278;SDS011;2153;47.744;10.580;2022-12-11T00:10:14;35.17;;;17.30;;
4278;SDS011;2153;47.744;10.580;2022-12-11T00:12:43;33.17;;;15.70;;
4278;SDS011;2153;47.744;10.580;2022-12-11T00:15:09;33.63;;;16.33;;
4278;SDS011;2153;47.744;10.580;2022-12-11T00:17:36;33.33;;;15.00;;
4278;SDS011;2153;47.744;10.580;2022-12-11T00:20:03;29.80;;;14.90;;
4278;SDS011;2153;47.744;10.580;2022-12-11T00:22:32;29.87;;;14.30;;
4278;SDS011;2153;47.744;10.580;2022-12-11T00:24:59;32.73;;;15.63;;
4278;SDS011;2153;47.744;10.580;2022-12-11T00:27:25;31.03;;;15.80;;
4278;SDS011;2153;47.744;10.580;2022-12-11T00:29:54;30.87;;;15.10;;
4278;SDS011;2153;47.744;10.580;2022-12-11T00:32:20;35.13;;;15.63;;
4278;SDS011;2153;47.744;10.580;2022-12-11T00:34:47;35.50;;;16.13;;
4278;SDS011;2153;47.744;10.580;2022-12-11T00:37:14;33.70;;;16.03;;
4278;SDS011;2153;47.744;10.580;2022-12-11T00:39:41;42.57;;;18.63;;
4278;SDS011;2153;47.744;10.580;2022-12-11T00:42:08;33.57;;;16.00;;
4278;SDS011;2153;47.744;10.580;2022-12-11T00:44:35;35.07;;;16.67;;
4278;SDS011;2153;47.744;10.580;2022-12-11T00:47:03;39.27;;;17.33;;
4278;SDS011;2153;47.744;10.580;2022-12-11T00:49:30;39.90;;;17.97;;
4278;SDS011;2153;47.744;10.580;2022-12-11T00:51:57;37.70;;;16.90;;
4278;SDS011;2153;47.744;10.580;2022-12-11T00:54:23;37.33;;;16.93;;
4278;SDS011;2153;47.744;10.580;2022-12-11T00:56:50;37.60;;;17.90;;
4278;SDS011;2153;47.744;10.580;2022-12-11T00:59:17;37.87;;;17.23;;
4278;SDS011;2153;47.744;10.580;2022-12-11T01:01:44;38.07;;;17.77;;
4278;SDS011;2153;47.744;10.580;2022-12-11T01:04:12;39.80;;;19.13;;
4278;SDS011;2153;47.744;10.580;2022-12-11T01:06:39;36.60;;;17.37;;
4278;SDS011;2153;47.744;10.580;2022-12-11T01:09:05;38.73;;;18.63;;
4278;SDS011;2153;47.744;10.580;2022-12-11T01:11:49;33.77;;;17.40;;
4278;SDS011;2153;47.744;10.580;2022-12-11T01:14:17;38.23;;;17.83;;
4278;SDS011;2153;47.744;10.580;2022-12-11T01:16:44;38.70;;;18.13;;
4278;SDS011;2153;47.744;10.580;2022-12-11T01:19:13;40.93;;;18.93;;
4278;SDS011;2153;47.744;10.580;2022-12-11T01:21:39;38.70;;;19.77;;
4278;SDS011;2153;47.744;10.580;2022-12-11T01:24:06;34.33;;;17.13;;
4278;SDS011;2153;47.744;10.580;2022-12-11T01:26:33;41.80;;;18.77;;
4278;SDS011;2153;47.744;10.580;2022-12-11T01:29:00;36.10;;;16.40;;
4278;SDS011;2153;47.744;10.580;2022-12-11T01:31:27;39.73;;;17.77;;
4278;SDS011;2153;47.744;10.580;2022-12-11T01:33:55;35.87;;;18.10;;
4278;SDS011;2153;47.744;10.580;2022-12-11T01:36:23;41.37;;;15.67;;
4278;SDS011;2153;47.744;10.580;2022-12-11T01:38:50;35.87;;;17.17;;
4278;SDS011;2153;47.744;10.580;2022-12-11T01:41:18;37.80;;;17.10;;
4278;SDS011;2153;47.744;10.580;2022-12-11T01:43:59;35.17;;;16.70;;
4278;SDS011;2153;47.744;10.580;2022-12-11T01:46:28;37.33;;;16.50;;
4278;SDS011;2153;47.744;10.580;2022-12-11T01:48:56;37.80;;;15.70;;
4278;SDS011;2153;47.744;10.580;2022-12-11T01:51:25;35.77;;;16.33;;
4278;SDS011;2153;47.744;10.580;2022-12-11T01:53:55;40.20;;;16.00;;
4278;SDS011;2153;47.744;10.580;2022-12-11T01:56:24;38.57;;;17.77;;
4278;SDS011;2153;47.744;10.580;2022-12-11T01:58:52;33.23;;;15.73;;
4278;SDS011;2153;47.744;10.580;2022-12-11T02:01:25;39.30;;;17.13;;
4278;SDS011;2153;47.744;10.580;2022-12-11T02:03:57;34.83;;;16.40;;
4278;SDS011;2153;47.744;10.580;2022-12-11T02:06:29;41.40;;;17.67;;
4278;SDS011;2153;47.744;10.580;2022-12-11T02:08:57;34.60;;;17.60;;
4278;SDS011;2153;47.744;10.580;2022-12-11T02:11:25;39.57;;;17.50;;
4278;SDS011;2153;47.744;10.580;2022-12-11T02:14:01;36.77;;;17.17;;
4278;SDS011;2153;47.744;10.580;2022-12-11T02:16:32;37.20;;;17.77;;
4278;SDS011;2153;47.744;10.580;2022-12-11T02:19:12;36.50;;;16.47;;
4278;SDS011;2153;47.744;10.580;2022-12-11T02:21:49;34.13;;;15.00;;
4278;SDS011;2153;47.744;10.580;2022-12-11T02:24:22;36.90;;;17.17;;
4278;SDS011;2153;47.744;10.580;2022-12-11T02:27:02;38.00;;;16.10;;
4278;SDS011;2153;47.744;10.580;2022-12-11T02:29:42;36.77;;;16.83;;
4278;SDS011;2153;47.744;10.580;2022-12-11T02:32:16;36.50;;;17.00;;
4278;SDS011;2153;47.744;10.580;2022-12-11T02:34:48;35.13;;;15.60;;
4278;SDS011;2153;47.744;10.580;2022-12-11T02:37:21;34.20;;;15.57;;
4278;SDS011;2153;47.744;10.580;2022-12-11T02:39:51;36.93;;;17.17;;
4278;SDS011;2153;47.744;10.580;2022-12-11T02:42:20;32.20;;;16.07;;
4278;SDS011;2153;47.744;10.580;2022-12-11T02:44:51;33.80;;;16.40;;
4278;SDS011;2153;47.744;10.580;2022-12-11T02:47:20;32.40;;;15.60;;
4278;SDS011;2153;47.744;10.580;2022-12-11T02:49:50;34.80;;;15.97;;
4278;SDS011;2153;47.744;10.580;2022-12-11T02:52:19;32.30;;;15.50;;
4278;SDS011;2153;47.744;10.580;2022-12-11T02:54:48;36.37;;;16.07;;
4278;SDS011;2153;47.744;10.580;2022-12-11T02:57:20;31.20;;;15.17;;
4278;SDS011;2153;47.744;10.580;2022-12-11T02:59:52;34.17;;;15.30;;
4278;SDS011;2153;47.744;10.580;2022-12-11T03:02:19;34.73;;;16.00;;
4278;SDS011;2153;47.744;10.580;2022-12-11T03:04:46;35.30;;;15.80;;
4278;SDS011;2153;47.744;10.580;2022-12-11T03:07:14;33.90;;;16.40;;
4278;SDS011;2153;47.744;10.580;2022-12-11T03:09:44;33.57;;;15.80;;
4278;SDS011;2153;47.744;10.580;2022-12-11T03:12:16;37.27;;;15.67;;
4278;SDS011;2153;47.744;10.580;2022-12-11T03:14:45;34.93;;;15.30;;
4278;SDS011;2153;47.744;10.580;2022-12-11T03:17:15;34.10;;;15.57;;
4278;SDS011;2153;47.744;10.580;2022-12-11T03:19:46;34.47;;;15.53;;
4278;SDS011;2153;47.744;10.580;2022-12-11T03:22:19;35.07;;;15.57;;
4278;SDS011;2153;47.744;10.580;2022-12-11T03:24:49;38.00;;;16.30;;
4278;SDS011;2153;47.744;10.580;2022-12-11T03:27:19;38.90;;;17.60;;
4278;SDS011;2153;47.744;10.580;2022-12-11T03:29:51;35.13;;;16.73;;
4278;SDS011;2153;47.744;10.580;2022-12-11T03:32:23;38.00;;;17.07;;
4278;SDS011;2153;47.744;10.580;2022-12-11T03:34:54;37.03;;;15.90;;
4278;SDS011;2153;47.744;10.580;2022-12-11T03:37:25;34.10;;;16.37;;
4278;SDS011;2153;47.744;10.580;2022-12-11T03:39:58;34.23;;;16.13;;
4278;SDS011;2153;47.744;10.580;2022-12-11T03:42:30;39.03;;;17.50;;
4278;SDS011;2153;47.744;10.580;2022-12-11T03:44:58;36.90;;;16.80;;
4278;SDS011;2153;47.744;10.580;2022-12-11T03:47:28;36.37;;;16.33;;
4278;SDS011;2153;47.744;10.580;2022-12-11T03:49:56;40.37;;;17.70;;
4278;SDS011;2153;47.744;10.580;2022-12-11T03:52:24;38.83;;;16.70;;
4278;SDS011;2153;47.744;10.580;2022-12-11T03:54:53;35.90;;;16.77;;
4278;SDS011;2153;47.744;10.580;2022-12-11T03:57:24;35.30;;;16.63;;
4278;SDS011;2153;47.744;10.580;2022-12-11T03:59:54;32.60;;;16.20;;
4278;SDS011;2153;47.744;10.580;2022-12-11T04:02:22;33.73;;;16.17;;
4278;SDS011;2153;47.744;10.580;2022-12-11T04:04:50;37.57;;;17.70;;
4278;SDS011;2153;47.744;10.580;2022-12-11T04:07:17;34.60;;;16.43;;
4278;SDS011;2153;47.744;10.580;2022-12-11T04:09:44;41.87;;;18.40;;
4278;SDS011;2153;47.744;10.580;2022-12-11T04:12:11;34.57;;;16.07;;
4278;SDS011;2153;47.744;10.580;2022-12-11T04:14:37;34.70;;;17.07;;
4278;SDS011;2153;47.744;10.580;2022-12-11T04:17:22;34.33;;;15.83;;
4278;SDS011;2153;47.744;10.580;2022-12-11T04:20:08;34.70;;;16.70;;
4278;SDS011;2153;47.744;10.580;2022-12-11T04:22:53;33.87;;;16.00;;
4278;SDS011;2153;47.744;10.580;2022-12-11T04:25:38;32.23;;;15.40;;
4278;SDS011;2153;47.744;10.580;2022-12-11T04:28:04;34.80;;;16.90;;
4278;SDS011;2153;47.744;10.580;2022-12-11T04:30:31;36.80;;;16.60;;
4278;SDS011;2153;47.744;10.580;2022-12-11T04:32:58;39.13;;;17.10;;
4278;SDS011;2153;47.744;10.580;2022-12-11T04:35:26;33.67;;;15.93;;
4278;SDS011;2153;47.744;10.580;2022-12-11T04:37:53;36.83;;;16.50;;
4278;SDS011;2153;47.744;10.580;2022-12-11T04:40:20;36.20;;;16.40;;
4278;SDS011;2153;47.744;10.580;2022-12-11T04:42:47;34.83;;;16.27;;
4278;SDS011;2153;47.744;10.580;2022-12-11T04:45:14;41.93;;;17.20;;
4278;SDS011;2153;47.744;10.580;2022-12-11T04:47:41;38.17;;;17.30;;
4278;SDS011;2153;47.744;10.580;2022-12-11T04:50:08;36.83;;;16.77;;
4278;SDS011;2153;47.744;10.580;2022-12-11T04:52:38;38.50;;;17.20;;
4278;SDS011;2153;47.744;10.580;2022-12-11T04:55:05;34.47;;;16.60;;
4278;SDS011;2153;47.744;10.580;2022-12-11T04:57:33;35.97;;;16.27;;
4278;SDS011;2153;47.744;10.580;2022-12-11T05:00:00;35.07;;;16.77;;
4278;SDS011;2153;47.744;10.580;2022-12-11T05:02:28;35.10;;;17.27;;
4278;SDS011;2153;47.744;10.580;2022-12-11T05:04:55;36.93;;;17.90;;
4278;SDS011;2153;47.744;10.580;2022-12-11T05:07:22;37.63;;;17.57;;
4278;SDS011;2153;47.744;10.580;2022-12-11T05:09:50;34.50;;;17.57;;
4278;SDS011;2153;47.744;10.580;2022-12-11T05:12:17;41.13;;;16.87;;
4278;SDS011;2153;47.744;10.580;2022-12-11T05:14:44;41.13;;;18.27;;
4278;SDS011;2153;47.744;10.580;2022-12-11T05:17:11;33.33;;;16.60;;
4278;SDS011;2153;47.744;10.580;2022-12-11T05:19:37;36.43;;;16.50;;
4278;SDS011;2153;47.744;10.580;2022-12-11T05:22:04;38.57;;;18.77;;
4278;SDS011;2153;47.744;10.580;2022-12-11T05:24:31;47.70;;;18.27;;
4278;SDS011;2153;47.744;10.580;2022-12-11T05:26:59;38.03;;;18.07;;
4278;SDS011;2153;47.744;10.580;2022-12-11T05:29:26;37.60;;;17.63;;
4278;SDS011;2153;47.744;10.580;2022-12-11T05:31:53;37.83;;;16.60;;
4278;SDS011;2153;47.744;10.580;2022-12-11T05:34:19;36.20;;;16.60;;
4278;SDS011;2153;47.744;10.580;2022-12-11T05:36:46;34.73;;;16.03;;
4278;SDS011;2153;47.744;10.580;2022-12-11T05:39:13;40.80;;;18.17;;
4278;SDS011;2153;47.744;10.580;2022-12-11T05:41:40;35.97;;;16.37;;
4278;SDS011;2153;47.744;10.580;2022-12-11T05:44:09;37.13;;;18.00;;
4278;SDS011;2153;47.744;10.580;2022-12-11T05:46:37;39.50;;;17.23;;
4278;SDS011;2153;47.744;10.580;2022-12-11T05:49:04;37.60;;;18.80;;
4278;SDS011;2153;47.744;10.580;2022-12-11T05:51:31;36.73;;;16.17;;
4278;SDS011;2153;47.744;10.580;2022-12-11T05:53:59;33.53;;;16.50;;
4278;SDS011;2153;47.744;10.580;2022-12-11T05:56:27;32.37;;;15.80;;
4278;SDS011;2153;47.744;10.580;2022-12-11T05:58:55;33.80;;;15.90;;
4278;SDS011;2153;47.744;10.580;2022-12-11T06:01:24;33.30;;;15.03;;
4278;SDS011;2153;47.744;10.580;2022-12-11T06:03:52;39.13;;;15.60;;
4278;SDS011;2153;47.744;10.580;2022-12-11T06:06:20;36.63;;;16.60;;
4278;SDS011;2153;47.744;10.580;2022-12-11T06:08:48;37.77;;;17.23;;
4278;SDS011;2153;47.744;10.580;2022-12-11T06:11:15;35.43;;;15.83;;
4278;SDS011;2153;47.744;10.580;2022-12-11T06:13:42;33.50;;;15.83;;
4278;SDS011;2153;47.744;10.580;2022-12-11T06:16:09;33.80;;;14.40;;
4278;SDS011;2153;47.744;10.580;2022-12-11T06:18:38;33.13;;;15.73;;
4278;SDS011;2153;47.744;10.580;2022-12-11T06:21:10;33.00;;;15.93;;
4278;SDS011;2153;47.744;10.580;2022-12-11T06:23:38;34.20;;;15.27;;
4278;SDS011;2153;47.744;10.580;2022-12-11T06:26:05;31.80;;;14.57;;
4278;SDS011;2153;47.744;10.580;2022-12-11T06:28:32;31.27;;;14.87;;
4278;SDS011;2153;47.744;10.580;2022-12-11T06:30:59;32.40;;;14.17;;
4278;SDS011;2153;47.744;10.580;2022-12-11T06:33:26;33.83;;;14.17;;
4278;SDS011;2153;47.744;10.580;2022-12-11T06:35:54;30.97;;;14.00;;
4278;SDS011;2153;47.744;10.580;2022-12-11T06:38:21;31.27;;;13.97;;
4278;SDS011;2153;47.744;10.580;2022-12-11T06:40:53;29.63;;;13.33;;
4278;SDS011;2153;47.744;10.580;2022-12-11T06:43:20;32.43;;;14.57;;
4278;SDS011;2153;47.744;10.580;2022-12-11T06:45:47;35.83;;;15.73;;
4278;SDS011;2153;47.744;10.580;2022-12-11T06:48:14;31.93;;;14.97;;
4278;SDS011;2153;47.744;10.580;2022-12-11T06:50:41;30.13;;;14.27;;
4278;SDS011;2153;47.744;10.580;2022-12-11T06:53:10;31.60;;;14.50;;
4278;SDS011;2153;47.744;10.580;2022-12-11T06:55:37;30.70;;;14.90;;
4278;SDS011;2153;47.744;10.580;2022-12-11T06:58:06;29.87;;;13.33;;
4278;SDS011;2153;47.744;10.580;2022-12-11T07:00:33;25.80;;;12.20;;
4278;SDS011;2153;47.744;10.580;2022-12-11T07:03:00;32.00;;;13.90;;
4278;SDS011;2153;47.744;10.580;2022-12-11T07:05:28;27.97;;;12.80;;
4278;SDS011;2153;47.744;10.580;2022-12-11T07:07:55;28.67;;;12.93;;
4278;SDS011;2153;47.744;10.580;2022-12-11T07:10:24;27.47;;;12.03;;
4278;SDS011;2153;47.744;10.580;2022-12-11T07:12:51;29.60;;;12.07;;
4278;SDS011;2153;47.744;10.580;2022-12-11T07:15:18;31.47;;;13.73;;
4278;SDS011;2153;47.744;10.580;2022-12-11T07:17:45;34.23;;;14.10;;
4278;SDS011;2153;47.744;10.580;2022-12-11T07:20:13;38.47;;;17.40;;
4278;SDS011;2153;47.744;10.580;2022-12-11T07:22:40;36.73;;;17.07;;
4278;SDS011;2153;47.744;10.580;2022-12-11T07:25:07;36.40;;;18.27;;
4278;SDS011;2153;47.744;10.580;2022-12-11T07:27:36;36.90;;;15.87;;
4278;SDS011;2153;47.744;10.580;2022-12-11T07:30:03;31.37;;;15.87;;
4278;SDS011;2153;47.744;10.580;2022-12-11T07:32:30;30.30;;;13.13;;
4278;SDS011;2153;47.744;10.580;2022-12-11T07:34:57;23.90;;;10.93;;
4278;SDS011;2153;47.744;10.580;2022-12-11T07:37:24;26.17;;;11.97;;
4278;SDS011;2153;47.744;10.580;2022-12-11T07:39:51;25.53;;;11.87;;
4278;SDS011;2153;47.744;10.580;2022-12-11T07:42:17;31.70;;;13.93;;
4278;SDS011;2153;47.744;10.580;2022-12-11T07:44:46;27.87;;;12.00;;
4278;SDS011;2153;47.744;10.580;2022-12-11T07:47:13;24.77;;;11.70;;
4278;SDS011;2153;47.744;10.580;2022-12-11T07:49:40;28.80;;;13.30;;
4278;SDS011;2153;47.744;10.580;2022-12-11T07:52:07;28.23;;;11.37;;
4278;SDS011;2153;47.744;10.580;2022-12-11T07:54:34;27.13;;;11.27;;
4278;SDS011;2153;47.744;10.580;2022-12-11T07:57:01;28.67;;;11.90;;
4278;SDS011;2153;47.744;10.580;2022-12-11T07:59:27;35.73;;;12.23;;
4278;SDS011;2153;47.744;10.580;2022-12-11T08:01:56;53.77;;;21.20;;
4278;SDS011;2153;47.744;10.580;2022-12-11T08:04:23;50.67;;;15.60;;
4278;SDS011;2153;47.744;10.580;2022-12-11T08:06:50;51.80;;;20.27;;
4278;SDS011;2153;47.744;10.580;2022-12-11T08:09:16;35.87;;;15.83;;
4278;SDS011;2153;47.744;10.580;2022-12-11T08:11:46;46.47;;;18.00;;
4278;SDS011;2153;47.744;10.580;2022-12-11T08:14:13;77.30;;;29.77;;
4278;SDS011;2153;47.744;10.580;2022-12-11T08:16:40;46.42;;;20.60;;
4278;SDS011;2153;47.744;10.580;2022-12-11T08:19:09;45.50;;;20.27;;
4278;SDS011;2153;47.744;10.580;2022-12-11T08:21:36;46.07;;;19.33;;
4278;SDS011;2153;47.744;10.580;2022-12-11T08:24:03;45.50;;;20.47;;
4278;SDS011;2153;47.744;10.580;2022-12-11T08:26:30;42.80;;;20.30;;
4278;SDS011;2153;47.744;10.580;2022-12-11T08:28:57;45.93;;;18.90;;
4278;SDS011;2153;47.744;10.580;2022-12-11T08:31:25;44.53;;;19.80;;
4278;SDS011;2153;47.744;10.580;2022-12-11T08:33:53;39.70;;;18.27;;
4278;SDS011;2153;47.744;10.580;2022-12-11T08:36:22;42.80;;;18.90;;
4278;SDS011;2153;47.744;10.580;2022-12-11T08:38:49;38.50;;;17.30;;
4278;SDS011;2153;47.744;10.580;2022-12-11T08:41:17;34.03;;;15.30;;
4278;SDS011;2153;47.744;10.580;2022-12-11T08:43:46;30.97;;;14.90;;
4278;SDS011;2153;47.744;10.580;2022-12-11T08:46:13;28.03;;;14.60;;
4278;SDS011;2153;47.744;10.580;2022-12-11T08:48:41;31.17;;;14.57;;
4278;SDS011;2153;47.744;10.580;2022-12-11T08:51:10;24.70;;;10.30;;
4278;SDS011;2153;47.744;10.580;2022-12-11T08:53:40;22.93;;;10.43;;
4278;SDS011;2153;47.744;10.580;2022-12-11T08:56:08;25.80;;;10.67;;
4278;SDS011;2153;47.744;10.580;2022-12-11T08:58:37;22.67;;;9.57;;
4278;SDS011;2153;47.744;10.580;2022-12-11T09:01:07;23.70;;;9.80;;
4278;SDS011;2153;47.744;10.580;2022-12-11T09:03:35;22.97;;;10.40;;
4278;SDS011;2153;47.744;10.580;2022-12-11T09:06:03;24.70;;;11.10;;
4278;SDS011;2153;47.744;10.580;2022-12-11T09:08:31;27.27;;;12.23;;
4278;SDS011;2153;47.744;10.580;2022-12-11T09:11:02;35.73;;;15.33;;
4278;SDS011;2153;47.744;10.580;2022-12-11T09:13:30;27.90;;;12.43;;
4278;SDS011;2153;47.744;10.580;2022-12-11T09:15:57;35.87;;;15.77;;
4278;SDS011;2153;47.744;10.580;2022-12-11T09:18:24;41.90;;;18.07;;
4278;SDS011;2153;47.744;10.580;2022-12-11T09:20:56;36.20;;;17.40;;
4278;SDS011;2153;47.744;10.580;2022-12-11T09:23:24;29.87;;;12.87;;
4278;SDS011;2153;47.744;10.580;2022-12-11T09:25:51;28.83;;;13.23;;
4278;SDS011;2153;47.744;10.580;2022-12-11T09:28:19;33.40;;;15.80;;
4278;SDS011;2153;47.744;10.580;2022-12-11T09:30:47;28.37;;;13.63;;
4278;SDS011;2153;47.744;10.580;2022-12-11T09:33:13;28.57;;;13.20;;
4278;SDS011;2153;47.744;10.580;2022-12-11T09:35:40;30.83;;;15.17;;
4278;SDS011;2153;47.744;10.580;2022-12-11T09:38:07;36.40;;;17.40;;
4278;SDS011;2153;47.744;10.580;2022-12-11T09:40:38;32.70;;;14.23;;
4278;SDS011;2153;47.744;10.580;2022-12-11T09:43:08;30.53;;;13.57;;
4278;SDS011;2153;47.744;10.580;2022-12-11T09:45:45;28.40;;;13.83;;
4278;SDS011;2153;47.744;10.580;2022-12-11T09:48:13;26.97;;;13.50;;
4278;SDS011;2153;47.744;10.580;2022-12-11T09:50:42;28.97;;;13.60;;
4278;SDS011;2153;47.744;10.580;2022-12-11T09:53:14;29.07;;;12.43;;
4278;SDS011;2153;47.744;10.580;2022-12-11T09:55:46;30.23;;;14.23;;
4278;SDS011;2153;47.744;10.580;2022-12-11T09:58:21;29.77;;;13.40;;
4278;SDS011;2153;47.744;10.580;2022-12-11T10:00:55;28.93;;;13.23;;
4278;SDS011;2153;47.744;10.580;2022-12-11T10:03:31;28.93;;;13.37;;
4278;SDS011;2153;47.744;10.580;2022-12-11T10:06:14;26.10;;;12.30;;
4278;SDS011;2153;47.744;10.580;2022-12-11T10:08:48;30.47;;;12.70;;
4278;SDS011;2153;47.744;10.580;2022-12-11T10:11:35;28.17;;;12.90;;
4278;SDS011;2153;47.744;10.580;2022-12-11T10:14:15;29.57;;;13.00;;
4278;SDS011;2153;47.744;10.580;2022-12-11T10:16:49;23.97;;;11.30;;
4278;SDS011;2153;47.744;10.580;2022-12-11T10:19:20;26.87;;;12.30;;
4278;SDS011;2153;47.744;10.580;2022-12-11T10:21:51;24.27;;;11.27;;
4278;SDS011;2153;47.744;10.580;2022-12-11T10:24:21;24.60;;;10.93;;
4278;SDS011;2153;47.744;10.580;2022-12-11T10:26:55;23.90;;;10.20;;
4278;SDS011;2153;47.744;10.580;2022-12-11T10:29:24;23.50;;;9.50;;
4278;SDS011;2153;47.744;10.580;2022-12-11T10:31:53;23.53;;;9.43;;
4278;SDS011;2153;47.744;10.580;2022-12-11T10:34:24;24.37;;;10.17;;
4278;SDS011;2153;47.744;10.580;2022-12-11T10:36:58;24.80;;;10.80;;
4278;SDS011;2153;47.744;10.580;2022-12-11T10:39:24;28.50;;;11.00;;
4278;SDS011;2153;47.744;10.580;2022-12-11T10:41:52;23.23;;;10.80;;
4278;SDS011;2153;47.744;10.580;2022-12-11T10:44:20;21.83;;;9.80;;
4278;SDS011;2153;47.744;10.580;2022-12-11T10:47:01;25.63;;;11.53;;
4278;SDS011;2153;47.744;10.580;2022-12-11T10:49:30;24.60;;;10.60;;
4278;SDS011;2153;47.744;10.580;2022-12-11T10:51:59;21.90;;;10.40;;
4278;SDS011;2153;47.744;10.580;2022-12-11T10:54:31;23.03;;;9.30;;
4278;SDS011;2153;47.744;10.580;2022-12-11T10:57:02;24.33;;;11.07;;
4278;SDS011;2153;47.744;10.580;2022-12-11T10:59:32;24.87;;;10.90;;
4278;SDS011;2153;47.744;10.580;2022-12-11T11:02:04;25.23;;;11.17;;
4278;SDS011;2153;47.744;10.580;2022-12-11T11:04:43;23.30;;;10.47;;
4278;SDS011;2153;47.744;10.580;2022-12-11T11:07:12;24.83;;;10.80;;
4278;SDS011;2153;47.744;10.580;2022-12-11T11:09:41;20.17;;;8.77;;
4278;SDS011;2153;47.744;10.580;2022-12-11T11:12:18;20.00;;;8.87;;
4278;SDS011;2153;47.744;10.580;2022-12-11T11:14:57;19.80;;;8.33;;
4278;SDS011;2153;47.744;10.580;2022-12-11T11:17:26;19.53;;;7.03;;
4278;SDS011;2153;47.744;10.580;2022-12-11T11:19:53;18.97;;;6.90;;
4278;SDS011;2153;47.744;10.580;2022-12-11T11:22:23;21.43;;;8.90;;
4278;SDS011;2153;47.744;10.580;2022-12-11T11:24:51;21.10;;;7.77;;
4278;SDS011;2153;47.744;10.580;2022-12-11T11:27:23;17.93;;;7.63;;
4278;SDS011;2153;47.744;10.580;2022-12-11T11:29:54;17.47;;;6.93;;
4278;SDS011;2153;47.744;10.580;2022-12-11T11:32:23;23.10;;;8.03;;
4278;SDS011;2153;47.744;10.580;2022-12-11T11:35:04;21.40;;;8.27;;
4278;SDS011;2153;47.744;10.580;2022-12-11T11:37:40;19.63;;;8.27;;
4278;SDS011;2153;47.744;10.580;2022-12-11T11:40:10;19.30;;;8.23;;
4278;SDS011;2153;47.744;10.580;2022-12-11T11:42:42;20.47;;;8.67;;
4278;SDS011;2153;47.744;10.580;2022-12-11T11:45:14;19.70;;;7.30;;
4278;SDS011;2153;47.744;10.580;2022-12-11T11:47:49;16.90;;;6.67;;
4278;SDS011;2153;47.744;10.580;2022-12-11T11:50:24;19.47;;;7.30;;
4278;SDS011;2153;47.744;10.580;2022-12-11T11:52:59;17.80;;;6.80;;
4278;SDS011;2153;47.744;10.580;2022-12-11T11:55:32;17.10;;;6.37;;
4278;SDS011;2153;47.744;10.580;2022-12-11T11:58:06;17.87;;;6.33;;
4278;SDS011;2153;47.744;10.580;2022-12-11T12:00:39;16.67;;;6.43;;
4278;SDS011;2153;47.744;10.580;2022-12-11T12:03:09;17.70;;;6.90;;
4278;SDS011;2153;47.744;10.580;2022-12-11T12:05:40;19.53;;;7.10;;
4278;SDS011;2153;47.744;10.580;2022-12-11T12:08:15;18.10;;;6.73;;
4278;SDS011;2153;47.744;10.580;2022-12-11T12:10:49;18.37;;;6.97;;
4278;SDS011;2153;47.744;10.580;2022-12-11T12:13:27;17.17;;;6.70;;
4278;SDS011;2153;47.744;10.580;2022-12-11T12:16:06;17.50;;;6.47;;
4278;SDS011;2153;47.744;10.580;2022-12-11T12:18:46;18.80;;;6.40;;
4278;SDS011;2153;47.744;10.580;2022-12-11T12:21:26;18.87;;;6.90;;
4278;SDS011;2153;47.744;10.580;2022-12-11T12:24:04;17.90;;;6.80;;
4278;SDS011;2153;47.744;10.580;2022-12-11T12:26:40;16.10;;;6.07;;
4278;SDS011;2153;47.744;10.580;2022-12-11T12:29:15;16.20;;;5.80;;
4278;SDS011;2153;47.744;10.580;2022-12-11T12:31:54;15.30;;;5.03;;
4278;SDS011;2153;47.744;10.580;2022-12-11T12:34:36;18.03;;;6.50;;
4278;SDS011;2153;47.744;10.580;2022-12-11T12:37:10;22.97;;;7.40;;
4278;SDS011;2153;47.744;10.580;2022-12-11T12:39:43;19.37;;;6.53;;
4278;SDS011;2153;47.744;10.580;2022-12-11T12:42:22;16.73;;;6.20;;
4278;SDS011;2153;47.744;10.580;2022-12-11T12:44:57;20.10;;;8.80;;
4278;SDS011;2153;47.744;10.580;2022-12-11T12:47:27;26.67;;;10.20;;
4278;SDS011;2153;47.744;10.580;2022-12-11T12:49:59;23.10;;;8.97;;
4278;SDS011;2153;47.744;10.580;2022-12-11T12:52:28;20.00;;;7.87;;
4278;SDS011;2153;47.744;10.580;2022-12-11T12:54:59;17.13;;;6.80;;
4278;SDS011;2153;47.744;10.580;2022-12-11T12:57:44;19.50;;;6.63;;
4278;SDS011;2153;47.744;10.580;2022-12-11T13:00:24;16.20;;;6.00;;
4278;SDS011;2153;47.744;10.580;2022-12-11T13:02:53;17.73;;;6.40;;
4278;SDS011;2153;47.744;10.580;2022-12-11T13:05:23;18.37;;;6.40;;
4278;SDS011;2153;47.744;10.580;2022-12-11T13:07:52;26.37;;;9.47;;
4278;SDS011;2153;47.744;10.580;2022-12-11T13:10:22;18.67;;;7.17;;
4278;SDS011;2153;47.744;10.580;2022-12-11T13:12:55;22.13;;;9.40;;
4278;SDS011;2153;47.744;10.580;2022-12-11T13:15:22;23.80;;;9.90;;
4278;SDS011;2153;47.744;10.580;2022-12-11T13:17:55;20.53;;;8.50;;
4278;SDS011;2153;47.744;10.580;2022-12-11T13:20:24;18.97;;;7.00;;
4278;SDS011;2153;47.744;10.580;2022-12-11T13:22:54;19.50;;;7.20;;
4278;SDS011;2153;47.744;10.580;2022-12-11T13:25:44;18.50;;;7.77;;
4278;SDS011;2153;47.744;10.580;2022-12-11T13:28:20;19.50;;;7.40;;
4278;SDS011;2153;47.744;10.580;2022-12-11T13:31:00;18.20;;;7.60;;
4278;SDS011;2153;47.744;10.580;2022-12-11T13:33:36;20.50;;;7.00;;
4278;SDS011;2153;47.744;10.580;2022-12-11T13:38:57;19.20;;;7.37;;
4278;SDS011;2153;47.744;10.580;2022-12-11T13:41:27;18.60;;;6.73;;
4278;SDS011;2153;47.744;10.580;2022-12-11T13:43:55;20.77;;;8.07;;
4278;SDS011;2153;47.744;10.580;2022-12-11T13:46:23;23.03;;;8.97;;
4278;SDS011;2153;47.744;10.580;2022-12-11T13:48:54;24.40;;;8.10;;
4278;SDS011;2153;47.744;10.580;2022-12-11T13:51:25;20.53;;;7.40;;
4278;SDS011;2153;47.744;10.580;2022-12-11T13:54:11;17.37;;;7.40;;
4278;SDS011;2153;47.744;10.580;2022-12-11T13:56:51;19.30;;;8.17;;
4278;SDS011;2153;47.744;10.580;2022-12-11T13:59:27;20.73;;;6.80;;
4278;SDS011;2153;47.744;10.580;2022-12-11T14:01:57;21.77;;;8.00;;
4278;SDS011;2153;47.744;10.580;2022-12-11T14:04:28;18.57;;;6.80;;
4278;SDS011;2153;47.744;10.580;2022-12-11T14:06:55;18.50;;;6.30;;
4278;SDS011;2153;47.744;10.580;2022-12-11T14:09:25;19.70;;;7.13;;
4278;SDS011;2153;47.744;10.580;2022-12-11T14:11:53;20.20;;;8.33;;
4278;SDS011;2153;47.744;10.580;2022-12-11T14:14:23;21.20;;;7.67;;
4278;SDS011;2153;47.744;10.580;2022-12-11T14:16:54;20.03;;;6.43;;
4278;SDS011;2153;47.744;10.580;2022-12-11T14:19:21;19.77;;;6.83;;
4278;SDS011;2153;47.744;10.580;2022-12-11T14:21:56;20.63;;;7.33;;
4278;SDS011;2153;47.744;10.580;2022-12-11T14:24:26;23.77;;;8.63;;
4278;SDS011;2153;47.744;10.580;2022-12-11T14:26:53;19.67;;;7.00;;
4278;SDS011;2153;47.744;10.580;2022-12-11T14:29:24;25.20;;;9.67;;
4278;SDS011;2153;47.744;10.580;2022-12-11T14:31:54;18.13;;;7.30;;
4278;SDS011;2153;47.744;10.580;2022-12-11T14:34:22;22.43;;;9.47;;
4278;SDS011;2153;47.744;10.580;2022-12-11T14:36:51;19.60;;;8.17;;
4278;SDS011;2153;47.744;10.580;2022-12-11T14:39:20;22.77;;;7.20;;
4278;SDS011;2153;47.744;10.580;2022-12-11T14:41:54;21.50;;;8.50;;
4278;SDS011;2153;47.744;10.580;2022-12-11T14:44:25;19.87;;;7.73;;
4278;SDS011;2153;47.744;10.580;2022-12-11T14:46:55;19.00;;;7.00;;
4278;SDS011;2153;47.744;10.580;2022-12-11T14:49:26;20.80;;;7.03;;
4278;SDS011;2153;47.744;10.580;2022-12-11T14:51:58;17.90;;;7.97;;
4278;SDS011;2153;47.744;10.580;2022-12-11T14:54:26;21.40;;;8.63;;
4278;SDS011;2153;47.744;10.580;2022-12-11T14:56:58;28.00;;;9.17;;